sensor_id;sensor_type;location;lat;lon;timestamp;pressure;altitude;pressure_sealevel;temperature;humidity
13612;BME280;6877;51.436;6.774;2023-04-01T00:01:19;98879.91;;;8.40;100.00
13612;BME280;6877;51.436;6.774;2023-04-01T00:03:45;98874.69;;;8.40;100.00
13612;BME280;6877;51.436;6.774;2023-04-01T00:06:18;98871.16;;;8.41;100.00
13612;BME280;6877;51.436;6.774;2023-04-01T00:08:50;98872.00;;;8.42;100.00
13612;BME280;6877;51.436;6.774;2023-04-01T00:11:22;98872.88;;;8.42;100.00
13612;BME280;6877;51.436;6.774;2023-04-01T00:13:54;98861.72;;;8.39;100.00
13612;BME280;6877;51.436;6.774;2023-04-01T00:16:25;98880.81;;;8.39;100.00
13612;BME280;6877;51.436;6.774;2023-04-01T00:18:52;98873.88;;;8.38;100.00
13612;BME280;6877;51.436;6.774;2023-04-01T00:21:19;98874.75;;;8.39;100.00
13612;BME280;6877;51.436;6.774;2023-04-01T00:23:46;98872.16;;;8.37;100.00
13612;BME280;6877;51.436;6.774;2023-04-01T00:26:13;98868.69;;;8.38;100.00
13612;BME280;6877;51.436;6.774;2023-04-01T00:28:40;98872.16;;;8.39;100.00
13612;BME280;6877;51.436;6.774;2023-04-01T00:31:08;98876.53;;;8.36;100.00
13612;BME280;6877;51.436;6.774;2023-04-01T00:33:35;98880.81;;;8.39;100.00
13612;BME280;6877;51.436;6.774;2023-04-01T00:36:07;98878.22;;;8.38;100.00
13612;BME280;6877;51.436;6.774;2023-04-01T00:38:34;98866.13;;;8.36;100.00
13612;BME280;6877;51.436;6.774;2023-04-01T00:41:06;98865.19;;;8.38;100.00
13612;BME280;6877;51.436;6.774;2023-04-01T00:43:33;98871.38;;;8.35;100.00
13612;BME280;6877;51.436;6.774;2023-04-01T00:46:02;98872.28;;;8.34;100.00
13612;BME280;6877;51.436;6.774;2023-04-01T00:48:32;98868.88;;;8.32;100.00
13612;BME280;6877;51.436;6.774;2023-04-01T00:51:07;98875.81;;;8.33;100.00
13612;BME280;6877;51.436;6.774;2023-04-01T00:53:43;98874.97;;;8.32;100.00
13612;BME280;6877;51.436;6.774;2023-04-01T00:56:22;98876.66;;;8.33;100.00
13612;BME280;6877;51.436;6.774;2023-04-01T00:59:00;98872.25;;;8.35;100.00
13612;BME280;6877;51.436;6.774;2023-04-01T01:01:28;98868.75;;;8.35;100.00
13612;BME280;6877;51.436;6.774;2023-04-01T01:04:02;98867.06;;;8.34;100.00
13612;BME280;6877;51.436;6.774;2023-04-01T01:06:38;98860.94;;;8.35;100.00
13612;BME280;6877;51.436;6.774;2023-04-01T01:12:43;98858.53;;;8.30;100.00
13612;BME280;6877;51.436;6.774;2023-04-01T01:15:23;98855.94;;;8.30;100.00
13612;BME280;6877;51.436;6.774;2023-04-01T01:18:11;98848.94;;;8.31;100.00
13612;BME280;6877;51.436;6.774;2023-04-01T03:37:10;98899.28;;;8.09;100.00
13612;BME280;6877;51.436;6.774;2023-04-01T03:39:48;98906.25;;;8.09;100.00
13612;BME280;6877;51.436;6.774;2023-04-01T03:42:22;98901.00;;;8.10;100.00
13612;BME280;6877;51.436;6.774;2023-04-01T03:45:00;98904.47;;;8.11;100.00
13612;BME280;6877;51.436;6.774;2023-04-01T03:47:31;98916.56;;;8.12;100.00
13612;BME280;6877;51.436;6.774;2023-04-01T03:50:08;98910.50;;;8.11;100.00
13612;BME280;6877;51.436;6.774;2023-04-01T03:52:39;98905.31;;;8.11;100.00
13612;BME280;6877;51.436;6.774;2023-04-01T03:55:11;98913.13;;;8.11;100.00
13612;BME280;6877;51.436;6.774;2023-04-01T03:57:53;98908.81;;;8.10;100.00
13612;BME280;6877;51.436;6.774;2023-04-01T04:00:35;98905.31;;;8.11;100.00
13612;BME280;6877;51.436;6.774;2023-04-01T04:03:26;98903.63;;;8.10;100.00
13612;BME280;6877;51.436;6.774;2023-04-01T04:06:01;98910.50;;;8.11;100.00
13612;BME280;6877;51.436;6.774;2023-04-01T04:08:39;98900.09;;;8.11;100.00
13612;BME280;6877;51.436;6.774;2023-04-01T04:11:11;98905.31;;;8.11;100.00
13612;BME280;6877;51.436;6.774;2023-04-01T04:13:53;98910.56;;;8.10;100.00
13612;BME280;6877;51.436;6.774;2023-04-01T04:16:24;98909.72;;;8.09;100.00
13612;BME280;6877;51.436;6.774;2023-04-01T04:18:53;98924.38;;;8.12;100.00
13612;BME280;6877;51.436;6.774;2023-04-01T04:21:24;98922.63;;;8.12;100.00
13612;BME280;6877;51.436;6.774;2023-04-01T04:23:50;98926.94;;;8.13;100.00
13612;BME280;6877;51.436;6.774;2023-04-01T04:26:19;98926.06;;;8.13;100.00
13612;BME280;6877;51.436;6.774;2023-04-01T04:28:49;98924.38;;;8.12;100.00
13612;BME280;6877;51.436;6.774;2023-04-01T04:31:20;98925.22;;;8.12;100.00
13612;BME280;6877;51.436;6.774;2023-04-01T04:33:46;98925.22;;;8.12;100.00
13612;BME280;6877;51.436;6.774;2023-04-01T04:36:13;98924.38;;;8.12;100.00
13612;BME280;6877;51.436;6.774;2023-04-01T04:38:40;98927.84;;;8.12;100.00
13612;BME280;6877;51.436;6.774;2023-04-01T04:41:11;98926.94;;;8.13;100.00
13612;BME280;6877;51.436;6.774;2023-04-01T04:43:40;98930.44;;;8.12;100.00
13612;BME280;6877;51.436;6.774;2023-04-01T04:46:09;98928.69;;;8.13;100.00
13612;BME280;6877;51.436;6.774;2023-04-01T04:48:36;98931.25;;;8.15;100.00
13612;BME280;6877;51.436;6.774;2023-04-01T04:51:03;98938.25;;;8.12;100.00
13612;BME280;6877;51.436;6.774;2023-04-01T04:53:29;98934.75;;;8.13;100.00
13612;BME280;6877;51.436;6.774;2023-04-01T04:55:59;98933.88;;;8.13;100.00
13612;BME280;6877;51.436;6.774;2023-04-01T04:58:26;98935.66;;;8.12;100.00
13612;BME280;6877;51.436;6.774;2023-04-01T05:00:52;98938.25;;;8.12;100.00
13612;BME280;6877;51.436;6.774;2023-04-01T05:03:19;98939.97;;;8.13;100.00
13612;BME280;6877;51.436;6.774;2023-04-01T05:05:52;98939.97;;;8.13;100.00
13612;BME280;6877;51.436;6.774;2023-04-01T05:08:19;98944.28;;;8.15;100.00
13612;BME280;6877;51.436;6.774;2023-04-01T05:10:46;98943.34;;;8.16;100.00
13612;BME280;6877;51.436;6.774;2023-04-01T05:13:12;98945.09;;;8.15;100.00
13612;BME280;6877;51.436;6.774;2023-04-01T05:15:39;98944.28;;;8.15;100.00
13612;BME280;6877;51.436;6.774;2023-04-01T05:18:06;98949.47;;;8.15;100.00
13612;BME280;6877;51.436;6.774;2023-04-01T05:20:32;98950.41;;;8.13;100.00
13612;BME280;6877;51.436;6.774;2023-04-01T05:22:59;98952.09;;;8.15;100.00
13612;BME280;6877;51.436;6.774;2023-04-01T05:25:26;98954.69;;;8.15;100.00
13612;BME280;6877;51.436;6.774;2023-04-01T05:27:52;98959.91;;;8.15;100.00
13612;BME280;6877;51.436;6.774;2023-04-01T05:30:19;98953.78;;;8.16;100.00
13612;BME280;6877;51.436;6.774;2023-04-01T05:32:46;98958.13;;;8.15;100.00
13612;BME280;6877;51.436;6.774;2023-04-01T05:35:12;98959.91;;;8.15;100.00
13612;BME280;6877;51.436;6.774;2023-04-01T05:37:41;98958.13;;;8.15;100.00
13612;BME280;6877;51.436;6.774;2023-04-01T05:40:09;98957.22;;;8.16;100.00
13612;BME280;6877;51.436;6.774;2023-04-01T05:42:35;98967.66;;;8.16;100.00
13612;BME280;6877;51.436;6.774;2023-04-01T05:45:02;98971.13;;;8.17;100.00
13612;BME280;6877;51.436;6.774;2023-04-01T05:47:28;98960.72;;;8.17;100.00
13612;BME280;6877;51.436;6.774;2023-04-01T05:49:55;98970.22;;;8.18;100.00
13612;BME280;6877;51.436;6.774;2023-04-01T05:52:21;98970.22;;;8.18;100.00
13612;BME280;6877;51.436;6.774;2023-04-01T05:54:48;98971.00;;;8.20;100.00
13612;BME280;6877;51.436;6.774;2023-04-01T05:57:15;98977.91;;;8.21;100.00
13612;BME280;6877;51.436;6.774;2023-04-01T05:59:41;98966.56;;;8.22;100.00
13612;BME280;6877;51.436;6.774;2023-04-01T06:02:13;98969.19;;;8.22;100.00
13612;BME280;6877;51.436;6.774;2023-04-01T06:04:42;98973.53;;;8.21;100.00
13612;BME280;6877;51.436;6.774;2023-04-01T06:07:16;98977.00;;;8.22;100.00
13612;BME280;6877;51.436;6.774;2023-04-01T06:09:46;98982.22;;;8.22;100.00
13612;BME280;6877;51.436;6.774;2023-04-01T06:15:18;98986.34;;;8.27;100.00
13612;BME280;6877;51.436;6.774;2023-04-01T06:18:13;98988.88;;;8.29;100.00
13612;BME280;6877;51.436;6.774;2023-04-01T06:23:48;98987.06;;;8.31;100.00
13612;BME280;6877;51.436;6.774;2023-04-01T06:27:00;98991.34;;;8.33;100.00
13612;BME280;6877;51.436;6.774;2023-04-01T06:29:47;98991.38;;;8.32;100.00
13612;BME280;6877;51.436;6.774;2023-04-01T06:33:00;98988.88;;;8.29;100.00
13612;BME280;6877;51.436;6.774;2023-04-01T06:35:45;99003.69;;;8.28;100.00
13612;BME280;6877;51.436;6.774;2023-04-01T06:46:49;99004.41;;;8.32;100.00
13612;BME280;6877;51.436;6.774;2023-04-01T06:52:03;99005.31;;;8.31;100.00
13612;BME280;6877;51.436;6.774;2023-04-01T06:54:38;99010.50;;;8.32;100.00
13612;BME280;6877;51.436;6.774;2023-04-01T06:57:30;99008.53;;;8.38;100.00
13612;BME280;6877;51.436;6.774;2023-04-01T07:00:04;99016.34;;;8.39;100.00
13612;BME280;6877;51.436;6.774;2023-04-01T07:02:45;99019.75;;;8.41;100.00
13612;BME280;6877;51.436;6.774;2023-04-01T07:05:20;99007.50;;;8.43;100.00
13612;BME280;6877;51.436;6.774;2023-04-01T07:07:52;99019.63;;;8.44;100.00
13612;BME280;6877;51.436;6.774;2023-04-01T07:11:10;99014.28;;;8.47;100.00
13612;BME280;6877;51.436;6.774;2023-04-01T07:16:56;99026.69;;;8.42;100.00
13612;BME280;6877;51.436;6.774;2023-04-01T07:24:55;99032.09;;;8.36;100.00
13612;BME280;6877;51.436;6.774;2023-04-01T07:27:24;99035.66;;;8.33;100.00
13612;BME280;6877;51.436;6.774;2023-04-01T07:29:51;99042.72;;;8.30;100.00
13612;BME280;6877;51.436;6.774;2023-04-01T07:38:10;99046.06;;;8.33;100.00
13612;BME280;6877;51.436;6.774;2023-04-01T07:41:01;99042.63;;;8.33;100.00
13612;BME280;6877;51.436;6.774;2023-04-01T07:49:08;99066.53;;;8.44;100.00
13612;BME280;6877;51.436;6.774;2023-04-01T07:51:56;99069.03;;;8.47;100.00
13612;BME280;6877;51.436;6.774;2023-04-01T07:54:43;99069.03;;;8.47;100.00
13612;BME280;6877;51.436;6.774;2023-04-01T07:57:19;99070.88;;;8.45;100.00
13612;BME280;6877;51.436;6.774;2023-04-01T08:05:59;99082.81;;;8.51;100.00
13612;BME280;6877;51.436;6.774;2023-04-01T08:11:50;99093.13;;;8.54;100.00
13612;BME280;6877;51.436;6.774;2023-04-01T08:17:02;99094.28;;;8.70;100.00
13612;BME280;6877;51.436;6.774;2023-04-01T08:22:13;99107.16;;;8.75;100.00
13612;BME280;6877;51.436;6.774;2023-04-01T08:24:48;99104.53;;;8.75;100.00
13612;BME280;6877;51.436;6.774;2023-04-01T08:27:27;99114.84;;;8.78;100.00
13612;BME280;6877;51.436;6.774;2023-04-01T08:30:01;99113.09;;;8.78;100.00
13612;BME280;6877;51.436;6.774;2023-04-01T08:32:34;99122.56;;;8.81;100.00
13612;BME280;6877;51.436;6.774;2023-04-01T08:35:33;99122.56;;;8.81;100.00
13612;BME280;6877;51.436;6.774;2023-04-01T08:38:13;99122.69;;;8.78;100.00
13612;BME280;6877;51.436;6.774;2023-04-01T08:46:10;99125.16;;;8.81;100.00
13612;BME280;6877;51.436;6.774;2023-04-01T08:57:04;99146.72;;;8.86;100.00
13612;BME280;6877;51.436;6.774;2023-04-01T09:19:06;99172.78;;;9.55;100.00
13612;BME280;6877;51.436;6.774;2023-04-01T09:21:59;99172.38;;;9.66;100.00
13612;BME280;6877;51.436;6.774;2023-04-01T09:35:47;99184.81;;;9.81;100.00
13612;BME280;6877;51.436;6.774;2023-04-01T09:43:35;99195.69;;;9.70;100.00
13612;BME280;6877;51.436;6.774;2023-04-01T09:54:24;99211.66;;;9.63;100.00
13612;BME280;6877;51.436;6.774;2023-04-01T10:37:15;99244.69;;;9.64;100.00
13612;BME280;6877;51.436;6.774;2023-04-01T10:54:05;99264.50;;;9.69;100.00
13612;BME280;6877;51.436;6.774;2023-04-01T11:00:10;99266.06;;;9.51;100.00
13612;BME280;6877;51.436;6.774;2023-04-01T11:33:16;99296.78;;;9.68;100.00
13612;BME280;6877;51.436;6.774;2023-04-01T11:50:20;99316.38;;;9.57;100.00
13612;BME280;6877;51.436;6.774;2023-04-01T12:01:59;99342.59;;;9.54;100.00
13612;BME280;6877;51.436;6.774;2023-04-01T12:10:28;99343.97;;;9.64;100.00
13612;BME280;6877;51.436;6.774;2023-04-01T12:13:08;99350.69;;;9.71;100.00
13612;BME280;6877;51.436;6.774;2023-04-01T12:39:11;99379.72;;;10.32;100.00
13612;BME280;6877;51.436;6.774;2023-04-01T12:42:04;99377.97;;;10.09;100.00
13612;BME280;6877;51.436;6.774;2023-04-01T12:47:49;99385.34;;;9.98;100.00
13612;BME280;6877;51.436;6.774;2023-04-01T12:55:45;99395.53;;;10.06;100.00
13612;BME280;6877;51.436;6.774;2023-04-01T13:15:30;99411.28;;;9.81;100.00
13612;BME280;6877;51.436;6.774;2023-04-01T13:23:48;99425.72;;;9.66;100.00
13612;BME280;6877;51.436;6.774;2023-04-01T13:29:14;99436.91;;;9.69;100.00
13612;BME280;6877;51.436;6.774;2023-04-01T13:31:51;99438.00;;;9.64;100.00
13612;BME280;6877;51.436;6.774;2023-04-01T13:34:44;99435.47;;;9.61;100.00
13612;BME280;6877;51.436;6.774;2023-04-01T13:37:29;99443.22;;;9.64;100.00
13612;BME280;6877;51.436;6.774;2023-04-01T13:43:34;99445.25;;;9.56;100.00
13612;BME280;6877;51.436;6.774;2023-04-01T13:46:47;99445.31;;;9.54;100.00
13612;BME280;6877;51.436;6.774;2023-04-01T13:49:30;99447.13;;;9.52;100.00
13612;BME280;6877;51.436;6.774;2023-04-01T13:57:32;99452.38;;;9.50;100.00
13612;BME280;6877;51.436;6.774;2023-04-01T14:00:22;99451.47;;;9.51;100.00
13612;BME280;6877;51.436;6.774;2023-04-01T14:09:00;99470.94;;;9.43;100.00
13612;BME280;6877;51.436;6.774;2023-04-01T14:11:40;99467.44;;;9.44;100.00
13612;BME280;6877;51.436;6.774;2023-04-01T14:14:33;99475.09;;;9.48;100.00
13612;BME280;6877;51.436;6.774;2023-04-01T14:34:19;99499.28;;;9.54;100.00
13612;BME280;6877;51.436;6.774;2023-04-01T14:48:58;99517.41;;;9.33;100.00
13612;BME280;6877;51.436;6.774;2023-04-01T14:51:33;99518.25;;;9.34;100.00
13612;BME280;6877;51.436;6.774;2023-04-01T14:54:22;99514.72;;;9.35;100.00
13612;BME280;6877;51.436;6.774;2023-04-01T14:57:23;99517.34;;;9.35;100.00
13612;BME280;6877;51.436;6.774;2023-04-01T14:59:59;99522.63;;;9.33;100.00
13612;BME280;6877;51.436;6.774;2023-04-01T15:03:07;99531.44;;;9.29;100.00
13612;BME280;6877;51.436;6.774;2023-04-01T15:08:28;99530.50;;;9.32;100.00
13612;BME280;6877;51.436;6.774;2023-04-01T15:27:51;99554.06;;;9.30;100.00
13612;BME280;6877;51.436;6.774;2023-04-01T15:30:31;99562.75;;;9.31;100.00
13612;BME280;6877;51.436;6.774;2023-04-01T15:36:04;99567.13;;;9.30;100.00
13612;BME280;6877;51.436;6.774;2023-04-01T15:55:31;99580.16;;;9.57;100.00
13612;BME280;6877;51.436;6.774;2023-04-01T16:09:06;99597.22;;;9.67;100.00
13612;BME280;6877;51.436;6.774;2023-04-01T16:12:04;99600.00;;;9.62;100.00
13612;BME280;6877;51.436;6.774;2023-04-01T16:17:53;99609.59;;;9.62;100.00
13612;BME280;6877;51.436;6.774;2023-04-01T16:20:42;99610.50;;;9.61;100.00
13612;BME280;6877;51.436;6.774;2023-04-01T16:23:24;99610.38;;;9.64;100.00
13612;BME280;6877;51.436;6.774;2023-04-01T16:26:01;99618.28;;;9.62;100.00
13612;BME280;6877;51.436;6.774;2023-04-01T16:28:42;99624.50;;;9.58;100.00
13612;BME280;6877;51.436;6.774;2023-04-01T16:31:31;99629.88;;;9.54;100.00
13612;BME280;6877;51.436;6.774;2023-04-01T16:34:04;99626.56;;;9.48;100.00
13612;BME280;6877;51.436;6.774;2023-04-01T16:36:54;99631.88;;;9.45;100.00
13612;BME280;6877;51.436;6.774;2023-04-01T16:39:52;99628.56;;;9.40;100.00
13612;BME280;6877;51.436;6.774;2023-04-01T16:42:28;99644.34;;;9.37;100.00
13612;BME280;6877;51.436;6.774;2023-04-01T16:47:37;99638.44;;;9.31;100.00
13612;BME280;6877;51.436;6.774;2023-04-01T16:58:10;99657.84;;;9.22;100.00
13612;BME280;6877;51.436;6.774;2023-04-01T17:00:58;99662.25;;;9.20;100.00
13612;BME280;6877;51.436;6.774;2023-04-01T17:03:34;99668.47;;;9.16;100.00
13612;BME280;6877;51.436;6.774;2023-04-01T17:12:01;99676.22;;;9.19;100.00
13612;BME280;6877;51.436;6.774;2023-04-01T17:20:25;99685.06;;;9.15;100.00
13612;BME280;6877;51.436;6.774;2023-04-01T17:23:20;99693.66;;;9.17;100.00
13612;BME280;6877;51.436;6.774;2023-04-01T17:28:50;99698.13;;;9.13;100.00
13612;BME280;6877;51.436;6.774;2023-04-01T17:31:41;99708.66;;;9.10;100.00
13612;BME280;6877;51.436;6.774;2023-04-01T17:42:59;99731.56;;;9.00;100.00
13612;BME280;6877;51.436;6.774;2023-04-01T17:51:17;99741.22;;;8.97;100.00
13612;BME280;6877;51.436;6.774;2023-04-01T17:56:44;99749.91;;;8.97;100.00
13612;BME280;6877;51.436;6.774;2023-04-01T17:59:25;99755.19;;;8.96;100.00
13612;BME280;6877;51.436;6.774;2023-04-01T18:04:46;99756.94;;;8.95;100.00
13612;BME280;6877;51.436;6.774;2023-04-01T18:10:28;99770.88;;;8.94;100.00
13612;BME280;6877;51.436;6.774;2023-04-01T18:21:25;99786.69;;;8.88;100.00
13612;BME280;6877;51.436;6.774;2023-04-01T18:23:58;99788.50;;;8.86;100.00
13612;BME280;6877;51.436;6.774;2023-04-01T18:26:33;99790.22;;;8.86;100.00
13612;BME280;6877;51.436;6.774;2023-04-01T18:31:51;99800.72;;;8.84;100.00
13612;BME280;6877;51.436;6.774;2023-04-01T18:37:16;99811.16;;;8.84;100.00
13612;BME280;6877;51.436;6.774;2023-04-01T18:40:15;99812.94;;;8.82;100.00
13612;BME280;6877;51.436;6.774;2023-04-01T18:42:50;99812.16;;;8.80;100.00
13612;BME280;6877;51.436;6.774;2023-04-01T18:45:32;99817.38;;;8.80;100.00
13612;BME280;6877;51.436;6.774;2023-04-01T18:51:03;99822.59;;;8.80;100.00
13612;BME280;6877;51.436;6.774;2023-04-01T18:56:36;99827.03;;;8.76;100.00
13612;BME280;6877;51.436;6.774;2023-04-01T18:59:18;99828.84;;;8.73;100.00
13612;BME280;6877;51.436;6.774;2023-04-01T19:02:00;99830.59;;;8.72;100.00
13612;BME280;6877;51.436;6.774;2023-04-01T19:05:31;99829.75;;;8.72;100.00
13612;BME280;6877;51.436;6.774;2023-04-01T19:10:14;99837.50;;;8.75;100.00
13612;BME280;6877;51.436;6.774;2023-04-01T19:15:52;99861.72;;;8.80;100.00
13612;BME280;6877;51.436;6.774;2023-04-01T19:18:57;99867.78;;;8.80;100.00
13612;BME280;6877;51.436;6.774;2023-04-01T19:21:42;99877.28;;;8.83;100.00
13612;BME280;6877;51.436;6.774;2023-04-01T19:38:31;99891.22;;;8.82;100.00
13612;BME280;6877;51.436;6.774;2023-04-01T19:44:41;99901.88;;;8.73;100.00
13612;BME280;6877;51.436;6.774;2023-04-01T19:50:14;99914.19;;;8.68;100.00
13612;BME280;6877;51.436;6.774;2023-04-01T19:52:49;99918.63;;;8.64;100.00
13612;BME280;6877;51.436;6.774;2023-04-01T19:55:43;99936.91;;;8.63;100.00
13612;BME280;6877;51.436;6.774;2023-04-01T20:00:53;99935.41;;;8.52;100.00
13612;BME280;6877;51.436;6.774;2023-04-01T20:03:51;99942.44;;;8.49;100.00
13612;BME280;6877;51.436;6.774;2023-04-01T20:07:15;99950.28;;;8.47;100.00
13612;BME280;6877;51.436;6.774;2023-04-01T20:12:29;99963.34;;;8.47;100.00
13612;BME280;6877;51.436;6.774;2023-04-01T20:14:54;99974.72;;;8.43;100.00
13612;BME280;6877;51.436;6.774;2023-04-01T20:25:16;100001.09;;;8.28;100.00
13612;BME280;6877;51.436;6.774;2023-04-01T20:27:49;100010.69;;;8.26;100.00
13612;BME280;6877;51.436;6.774;2023-04-01T20:30:46;100010.75;;;8.23;100.00
13612;BME280;6877;51.436;6.774;2023-04-01T20:42:03;100035.41;;;8.08;100.00
13612;BME280;6877;51.436;6.774;2023-04-01T20:45:04;100038.94;;;8.04;100.00
13612;BME280;6877;51.436;6.774;2023-04-01T20:50:52;100047.69;;;8.01;100.00
13612;BME280;6877;51.436;6.774;2023-04-01T20:53:50;100053.72;;;8.03;100.00
13612;BME280;6877;51.436;6.774;2023-04-01T20:56:23;100054.66;;;8.01;100.00
13612;BME280;6877;51.436;6.774;2023-04-01T21:05:21;100075.88;;;7.79;100.00
13612;BME280;6877;51.436;6.774;2023-04-01T21:10:43;100099.50;;;7.69;100.00
13612;BME280;6877;51.436;6.774;2023-04-01T21:13:33;100085.72;;;7.62;100.00
13612;BME280;6877;51.436;6.774;2023-04-01T21:33:42;100149.41;;;7.44;100.00
13612;BME280;6877;51.436;6.774;2023-04-01T21:50:27;100175.03;;;7.08;100.00
13612;BME280;6877;51.436;6.774;2023-04-01T22:04:22;100200.34;;;6.97;100.00
13612;BME280;6877;51.436;6.774;2023-04-01T22:07:15;100209.09;;;6.90;100.00
13612;BME280;6877;51.436;6.774;2023-04-01T22:09:46;100216.97;;;6.84;100.00
13612;BME280;6877;51.436;6.774;2023-04-01T22:15:04;100221.38;;;6.79;100.00
13612;BME280;6877;51.436;6.774;2023-04-01T22:17:54;100231.81;;;6.76;100.00
13612;BME280;6877;51.436;6.774;2023-04-01T22:20:40;100238.78;;;6.70;100.00
13612;BME280;6877;51.436;6.774;2023-04-01T22:26:13;100257.13;;;6.60;100.00
13612;BME280;6877;51.436;6.774;2023-04-01T22:31:26;100258.91;;;6.55;100.00
13612;BME280;6877;51.436;6.774;2023-04-01T22:39:56;100274.63;;;6.41;100.00
13612;BME280;6877;51.436;6.774;2023-04-01T22:42:50;100294.56;;;6.40;100.00
13612;BME280;6877;51.436;6.774;2023-04-01T22:48:42;100292.00;;;6.36;100.00
13612;BME280;6877;51.436;6.774;2023-04-01T22:51:57;100312.81;;;6.33;100.00
13612;BME280;6877;51.436;6.774;2023-04-01T22:54:31;100309.38;;;6.31;100.00
13612;BME280;6877;51.436;6.774;2023-04-01T22:57:10;100323.25;;;6.28;100.00
13612;BME280;6877;51.436;6.774;2023-04-01T22:59:58;100327.59;;;6.28;100.00
13612;BME280;6877;51.436;6.774;2023-04-01T23:02:33;100325.91;;;6.20;100.00
13612;BME280;6877;51.436;6.774;2023-04-01T23:05:12;100345.88;;;6.14;100.00
13612;BME280;6877;51.436;6.774;2023-04-01T23:11:06;100355.47;;;6.01;100.00
13612;BME280;6877;51.436;6.774;2023-04-01T23:13:43;100359.84;;;5.97;100.00
13612;BME280;6877;51.436;6.774;2023-04-01T23:16:12;100345.13;;;5.95;100.00
13612;BME280;6877;51.436;6.774;2023-04-01T23:18:58;100352.94;;;5.96;100.00
13612;BME280;6877;51.436;6.774;2023-04-01T23:21:36;100364.16;;;6.00;100.00
13612;BME280;6877;51.436;6.774;2023-04-01T23:24:28;100367.63;;;5.97;100.00
13612;BME280;6877;51.436;6.774;2023-04-01T23:27:11;100376.28;;;5.95;100.00
13612;BME280;6877;51.436;6.774;2023-04-01T23:29:44;100379.78;;;5.94;100.00
13612;BME280;6877;51.436;6.774;2023-04-01T23:32:18;100382.34;;;5.95;100.00
13612;BME280;6877;51.436;6.774;2023-04-01T23:34:47;100392.72;;;5.92;100.00
13612;BME280;6877;51.436;6.774;2023-04-01T23:37:16;100391.84;;;5.92;100.00
13612;BME280;6877;51.436;6.774;2023-04-01T23:39:47;100392.75;;;5.88;100.00
13612;BME280;6877;51.436;6.774;2023-04-01T23:42:23;100395.38;;;5.85;100.00
13612;BME280;6877;51.436;6.774;2023-04-01T23:44:57;100406.63;;;5.79;100.00
13612;BME280;6877;51.436;6.774;2023-04-01T23:47:30;100412.69;;;5.76;100.00
13612;BME280;6877;51.436;6.774;2023-04-01T23:50:07;100419.66;;;5.71;100.00
13612;BME280;6877;51.436;6.774;2023-04-01T23:52:43;100430.06;;;5.68;100.00
13612;BME280;6877;51.436;6.774;2023-04-01T23:57:37;100442.22;;;5.58;100.00
